Time;durP1;ratioP1;P1;durP2;ratioP2;P2;SDS_P1;SDS_P2;PMS_P1;PMS_P2;Temp;Humidity;BMP_temperature;BMP_pressure;BME280_temperature;BME280_humidity;BME280_pressure;Samples;Min_cycle;Max_cycle;Signal;HPM_P1;HPM_P2
2021/06/04 00:00:27;;;;;;;8.45;3.17;;;;;;;;;;4412345;32;20511;-56
2021/06/04 00:02:54;;;;;;;4.53;3.03;;;;;;;;;;4398925;32;20764;-56
2021/06/04 00:05:25;;;;;;;3.62;3.03;;;;;;;;;;4409399;32;20338;-55
2021/06/04 00:07:50;;;;;;;5.53;3.30;;;;;;;;;;4414903;32;20552;-56
2021/06/04 00:10:24;;;;;;;5.22;3.20;;;;;;;;;;4413958;32;20724;-57
2021/06/04 00:12:50;;;;;;;5.05;2.87;;;;;;;;;;4377309;32;20419;-56
2021/06/04 00:15:22;;;;;;;6.60;3.22;;;;;;;;;;4405185;32;20276;-55
2021/06/04 00:17:47;;;;;;;5.05;3.00;;;;;;;;;;4412801;32;20547;-56
2021/06/04 00:20:20;;;;;;;5.90;3.47;;;;;;;;;;4405762;32;20397;-56
2021/06/04 00:22:46;;;;;;;7.60;2.53;;;;;;;;;;4410004;32;20752;-56
2021/06/04 00:25:12;;;;;;;5.22;2.80;;;;;;;;;;4401172;32;20353;-56
2021/06/04 00:27:37;;;;;;;4.25;2.83;;;;;;;;;;4409089;32;20264;-55
2021/06/04 00:30:05;;;;;;;5.87;2.80;;;;;;;;;;4403653;32;20268;-55
2021/06/04 00:32:31;;;;;;;8.07;2.78;;;;;;;;;;4410654;32;20225;-56
2021/06/04 00:34:56;;;;;;;7.20;3.45;;;;;;;;;;4412831;32;20588;-56
2021/06/04 00:37:21;;;;;;;11.70;3.20;;;;;;;;;;4405753;32;20256;-56
2021/06/04 00:39:49;;;;;;;11.05;3.03;;;;;;;;;;4413109;32;20281;-56
2021/06/04 00:42:19;;;;;;;4.20;2.97;;;;;;;;;;4410269;32;20304;-55
2021/06/04 00:44:47;;;;;;;6.97;3.03;;;;;;;;;;4407616;32;20278;-57
2021/06/04 00:47:13;;;;;;;8.77;3.25;;;;;;;;;;4404260;32;20217;-56
2021/06/04 00:49:39;;;;;;;4.93;2.97;;;;;;;;;;4407438;32;20209;-55
2021/06/04 00:52:15;;;;;;;6.05;3.53;;;;;;;;;;4408729;32;20457;-55
2021/06/04 00:54:42;;;;;;;6.87;3.08;;;;;;;;;;4407104;32;20667;-55
2021/06/04 00:57:08;;;;;;;8.10;3.72;;;;;;;;;;4407742;32;20673;-56
2021/06/04 00:59:38;;;;;;;4.40;3.03;;;;;;;;;;4415974;32;20267;-56
2021/06/04 01:02:07;;;;;;;4.75;2.70;;;;;;;;;;4401641;32;20252;-56
2021/06/04 01:04:33;;;;;;;3.70;3.10;;;;;;;;;;4401685;32;20256;-55
2021/06/04 01:07:10;;;;;;;7.45;2.90;;;;;;;;;;4411513;32;20279;-56
2021/06/04 01:10:17;;;;;;;3.78;2.72;;;;;;;;;;4402199;32;20256;-56
2021/06/04 01:12:48;;;;;;;3.30;2.53;;;;;;;;;;4412566;32;20656;-56
2021/06/04 01:15:44;;;;;;;5.47;3.42;;;;;;;;;;4405465;32;20286;-55
2021/06/04 01:18:18;;;;;;;9.48;3.62;;;;;;;;;;4403995;32;20364;-56
2021/06/04 01:21:05;;;;;;;8.50;3.40;;;;;;;;;;4407499;32;20272;-55
2021/06/04 01:24:03;;;;;;;4.07;2.80;;;;;;;;;;4410973;32;20232;-56
2021/06/04 01:26:58;;;;;;;11.98;3.05;;;;;;;;;;4399886;32;20225;-56
2021/06/04 01:29:34;;;;;;;6.57;3.53;;;;;;;;;;4414915;32;20225;-55
2021/06/04 01:32:22;;;;;;;6.43;3.47;;;;;;;;;;4404713;32;20348;-55
2021/06/04 01:34:54;;;;;;;9.73;3.40;;;;;;;;;;4416539;32;20232;-55
2021/06/04 01:37:31;;;;;;;6.70;3.20;;;;;;;;;;4418700;32;20426;-55
2021/06/04 01:40:00;;;;;;;8.07;3.70;;;;;;;;;;4406611;32;20663;-56
2021/06/04 01:42:33;;;;;;;7.22;4.12;;;;;;;;;;4414594;32;20296;-56
2021/06/04 01:45:07;;;;;;;6.62;3.78;;;;;;;;;;4411823;32;20252;-56
2021/06/04 01:47:58;;;;;;;7.47;3.90;;;;;;;;;;4418816;32;20262;-56
2021/06/04 01:50:27;;;;;;;3.62;2.80;;;;;;;;;;4402502;32;20547;-56
2021/06/04 01:52:54;;;;;;;5.97;3.70;;;;;;;;;;4411632;32;20233;-56
2021/06/04 01:55:29;;;;;;;7.32;3.58;;;;;;;;;;4417100;32;20668;-57
2021/06/04 01:58:00;;;;;;;3.67;3.17;;;;;;;;;;4398055;32;20379;-55
2021/06/04 02:00:34;;;;;;;5.18;3.05;;;;;;;;;;4405989;32;20226;-56
2021/06/04 02:03:00;;;;;;;4.47;4.00;;;;;;;;;;4417348;32;20650;-57
2021/06/04 02:05:30;;;;;;;8.05;4.22;;;;;;;;;;4405552;32;20258;-56
2021/06/04 02:07:57;;;;;;;10.45;4.35;;;;;;;;;;4412651;32;20256;-56
2021/06/04 02:10:39;;;;;;;8.68;4.65;;;;;;;;;;4413147;32;20661;-57
2021/06/04 02:13:08;;;;;;;7.95;5.12;;;;;;;;;;4413382;32;20486;-56
2021/06/04 02:15:38;;;;;;;8.60;4.93;;;;;;;;;;4411180;32;20626;-56
2021/06/04 02:18:12;;;;;;;11.52;4.87;;;;;;;;;;4418403;32;20296;-56
2021/06/04 02:21:13;;;;;;;10.07;4.57;;;;;;;;;;4417802;32;20262;-56
2021/06/04 02:23:48;;;;;;;7.30;5.10;;;;;;;;;;4417135;32;20602;-56
2021/06/04 02:26:24;;;;;;;8.90;5.10;;;;;;;;;;4408601;32;20299;-56
2021/06/04 02:29:11;;;;;;;9.77;5.05;;;;;;;;;;4407419;32;20358;-56
2021/06/04 02:31:50;;;;;;;14.85;5.90;;;;;;;;;;4407521;32;20270;-56
2021/06/04 02:34:21;;;;;;;10.32;5.37;;;;;;;;;;4416897;32;20236;-56
2021/06/04 02:37:04;;;;;;;16.95;5.30;;;;;;;;;;4415130;32;20217;-56
2021/06/04 02:39:35;;;;;;;8.68;4.85;;;;;;;;;;4406932;32;20783;-56
2021/06/04 02:42:10;;;;;;;8.07;4.97;;;;;;;;;;4404492;32;20643;-55
2021/06/04 02:44:42;;;;;;;8.63;4.45;;;;;;;;;;4416219;32;20503;-55
2021/06/04 02:47:27;;;;;;;7.90;4.90;;;;;;;;;;4393965;32;20727;-55
2021/06/04 02:49:55;;;;;;;10.15;5.30;;;;;;;;;;4415185;32;20201;-55
2021/06/04 02:52:25;;;;;;;9.77;4.93;;;;;;;;;;4410380;32;20408;-55
2021/06/04 02:54:51;;;;;;;6.43;4.40;;;;;;;;;;4409240;32;20345;-56
2021/06/04 02:57:20;;;;;;;9.07;4.90;;;;;;;;;;4404315;32;20239;-55
2021/06/04 02:59:48;;;;;;;7.28;4.37;;;;;;;;;;4410966;32;20316;-55
2021/06/04 03:02:32;;;;;;;7.60;4.55;;;;;;;;;;4406589;32;20278;-55
2021/06/04 03:05:07;;;;;;;9.95;4.50;;;;;;;;;;4392666;32;20225;-55
2021/06/04 03:07:36;;;;;;;6.28;4.85;;;;;;;;;;4414788;32;20563;-55
2021/06/04 03:10:08;;;;;;;8.00;5.18;;;;;;;;;;4410416;32;20216;-55
2021/06/04 03:12:40;;;;;;;12.48;5.57;;;;;;;;;;4411552;32;20269;-55
2021/06/04 03:15:13;;;;;;;10.30;5.00;;;;;;;;;;4414710;32;20274;-55
2021/06/04 03:17:38;;;;;;;9.52;5.20;;;;;;;;;;4411977;32;20236;-55
2021/06/04 03:20:08;;;;;;;9.80;4.60;;;;;;;;;;4409133;32;20560;-55
2021/06/04 03:22:38;;;;;;;8.67;4.47;;;;;;;;;;4415769;32;20229;-55
2021/06/04 03:25:32;;;;;;;6.73;4.60;;;;;;;;;;4409299;32;20659;-55
2021/06/04 03:27:57;;;;;;;7.25;5.85;;;;;;;;;;4398488;32;20295;-56
2021/06/04 03:30:26;;;;;;;9.80;4.50;;;;;;;;;;4410656;32;20276;-57
2021/06/04 03:32:52;;;;;;;14.00;4.80;;;;;;;;;;4411595;32;20565;-56
2021/06/04 03:35:18;;;;;;;5.70;4.20;;;;;;;;;;4396633;32;20304;-56
2021/06/04 03:37:43;;;;;;;13.88;4.68;;;;;;;;;;4398641;32;20228;-56
2021/06/04 03:40:17;;;;;;;12.82;5.00;;;;;;;;;;4408798;32;20213;-55
2021/06/04 03:42:43;;;;;;;13.60;5.50;;;;;;;;;;4415453;32;20639;-56
2021/06/04 03:45:14;;;;;;;10.23;4.53;;;;;;;;;;4412772;32;20568;-56
2021/06/04 03:47:40;;;;;;;7.75;4.97;;;;;;;;;;4411040;32;20343;-54
2021/06/04 03:50:07;;;;;;;11.70;5.10;;;;;;;;;;4402338;32;20787;-55
2021/06/04 03:52:33;;;;;;;15.45;5.07;;;;;;;;;;4410917;32;20269;-56
2021/06/04 03:54:59;;;;;;;12.33;4.43;;;;;;;;;;4409066;32;20286;-56
2021/06/04 03:57:33;;;;;;;16.67;4.60;;;;;;;;;;4410598;32;20373;-55
2021/06/04 04:00:00;;;;;;;8.30;4.55;;;;;;;;;;4398981;32;20657;-55
2021/06/04 04:02:27;;;;;;;11.70;4.80;;;;;;;;;;4401849;32;20364;-55
2021/06/04 04:04:57;;;;;;;15.60;5.80;;;;;;;;;;4411249;32;20213;-55
2021/06/04 04:07:25;;;;;;;16.90;5.23;;;;;;;;;;4417263;32;20244;-55
2021/06/04 04:09:51;;;;;;;9.57;4.50;;;;;;;;;;4417226;32;20348;-56
2021/06/04 04:12:17;;;;;;;8.53;4.27;;;;;;;;;;4407950;32;20233;-55
2021/06/04 04:14:43;;;;;;;11.43;4.93;;;;;;;;;;4406109;32;20248;-55
2021/06/04 04:17:09;;;;;;;11.97;4.60;;;;;;;;;;4415388;32;20251;-55
2021/06/04 04:19:34;;;;;;;9.97;5.03;;;;;;;;;;4410131;32;20454;-55
2021/06/04 04:22:00;;;;;;;14.43;5.60;;;;;;;;;;4408093;32;20324;-55
2021/06/04 04:24:33;;;;;;;10.87;5.80;;;;;;;;;;4405483;32;20217;-56
2021/06/04 04:26:59;;;;;;;15.17;6.07;;;;;;;;;;4409699;32;20581;-56
2021/06/04 04:29:25;;;;;;;13.53;5.73;;;;;;;;;;4401743;32;20300;-55
2021/06/04 04:31:53;;;;;;;8.90;5.73;;;;;;;;;;4410180;32;20225;-55
2021/06/04 04:34:20;;;;;;;13.93;6.53;;;;;;;;;;4406115;32;20312;-56
2021/06/04 04:36:49;;;;;;;22.40;7.07;;;;;;;;;;4405500;32;20292;-58
2021/06/04 04:39:23;;;;;;;13.43;7.00;;;;;;;;;;4413758;32;20300;-56
2021/06/04 04:41:50;;;;;;;10.25;6.05;;;;;;;;;;4409033;32;20217;-56
2021/06/04 04:44:19;;;;;;;20.13;7.00;;;;;;;;;;4417049;32;20324;-56
2021/06/04 04:46:45;;;;;;;10.80;7.03;;;;;;;;;;4416823;32;20863;-56
2021/06/04 04:49:11;;;;;;;12.50;7.70;;;;;;;;;;4415760;32;20282;-56
2021/06/04 04:51:36;;;;;;;17.17;9.33;;;;;;;;;;4407725;32;20218;-56
2021/06/04 04:54:04;;;;;;;19.80;11.50;;;;;;;;;;4405449;32;20282;-55
2021/06/04 04:56:29;;;;;;;22.37;11.17;;;;;;;;;;4402893;32;20217;-55
2021/06/04 04:58:55;;;;;;;22.93;11.23;;;;;;;;;;4414458;32;20292;-56
2021/06/04 05:01:22;;;;;;;24.27;11.80;;;;;;;;;;4413193;32;20556;-56
2021/06/04 05:03:48;;;;;;;19.77;11.23;;;;;;;;;;4405035;32;20216;-56
2021/06/04 05:06:14;;;;;;;22.17;12.70;;;;;;;;;;4411028;32;20251;-55
2021/06/04 05:08:40;;;;;;;18.07;10.10;;;;;;;;;;4401206;32;20300;-56
2021/06/04 05:11:06;;;;;;;15.73;9.87;;;;;;;;;;4413126;32;20343;-58
2021/06/04 05:13:33;;;;;;;17.70;10.47;;;;;;;;;;4406578;32;20240;-56
2021/06/04 05:16:03;;;;;;;19.10;11.30;;;;;;;;;;4412370;32;20592;-55
2021/06/04 05:18:29;;;;;;;19.17;10.70;;;;;;;;;;4406410;32;20271;-55
2021/06/04 05:20:54;;;;;;;14.40;10.17;;;;;;;;;;4417759;32;20830;-56
2021/06/04 05:23:20;;;;;;;27.33;11.10;;;;;;;;;;4415607;32;20300;-56
2021/06/04 05:25:48;;;;;;;24.50;11.55;;;;;;;;;;4414743;32;20483;-57
2021/06/04 05:28:16;;;;;;;23.90;10.50;;;;;;;;;;4405527;32;20217;-56
2021/06/04 05:30:44;;;;;;;24.07;11.33;;;;;;;;;;4400652;32;20225;-56
2021/06/04 05:33:16;;;;;;;18.67;11.48;;;;;;;;;;4406425;32;20359;-56
2021/06/04 05:35:43;;;;;;;18.15;10.23;;;;;;;;;;4412658;32;20201;-55
2021/06/04 05:38:09;;;;;;;20.27;12.32;;;;;;;;;;4403554;32;20748;-55
2021/06/04 05:40:39;;;;;;;20.02;10.95;;;;;;;;;;4410777;32;20257;-56
2021/06/04 05:43:07;;;;;;;25.70;10.40;;;;;;;;;;4404483;32;20540;-55
2021/06/04 05:45:36;;;;;;;20.85;9.73;;;;;;;;;;4395014;32;20286;-57
2021/06/04 05:48:02;;;;;;;21.87;10.98;;;;;;;;;;4410597;32;20679;-56
2021/06/04 05:50:32;;;;;;;17.13;9.07;;;;;;;;;;4410877;32;20710;-57
2021/06/04 05:52:57;;;;;;;15.37;8.43;;;;;;;;;;4402903;32;20234;-55
2021/06/04 05:55:27;;;;;;;20.37;8.90;;;;;;;;;;4401487;32;20322;-57
2021/06/04 05:57:53;;;;;;;18.87;9.10;;;;;;;;;;4411214;32;20241;-56
2021/06/04 06:00:25;;;;;;;21.33;8.83;;;;;;;;;;4415160;32;20304;-57
2021/06/04 06:02:51;;;;;;;20.73;10.60;;;;;;;;;;4407594;32;20235;-56
2021/06/04 06:05:17;;;;;;;16.75;9.98;;;;;;;;;;4407107;32;20220;-56
2021/06/04 06:07:42;;;;;;;29.15;12.18;;;;;;;;;;4407100;32;20296;-56
2021/06/04 06:10:08;;;;;;;27.62;10.60;;;;;;;;;;4390689;32;20323;-56
2021/06/04 06:12:34;;;;;;;18.35;9.32;;;;;;;;;;4406975;32;20243;-56
2021/06/04 06:14:59;;;;;;;18.75;9.93;;;;;;;;;;4409721;32;20758;-56
2021/06/04 06:17:25;;;;;;;20.70;10.48;;;;;;;;;;4408202;32;20305;-55
2021/06/04 06:19:50;;;;;;;13.32;8.85;;;;;;;;;;4403928;32;20288;-57
2021/06/04 06:22:16;;;;;;;25.73;10.13;;;;;;;;;;4410449;32;20286;-56
2021/06/04 06:24:42;;;;;;;14.60;8.75;;;;;;;;;;4404031;32;20244;-56
2021/06/04 06:27:08;;;;;;;13.50;8.98;;;;;;;;;;4408314;32;20229;-56
2021/06/04 06:29:35;;;;;;;24.42;9.48;;;;;;;;;;4407067;32;20210;-57
2021/06/04 06:32:03;;;;;;;16.97;10.47;;;;;;;;;;4404105;32;20286;-56
2021/06/04 06:34:29;;;;;;;16.35;9.48;;;;;;;;;;4409754;32;20217;-56
2021/06/04 06:36:55;;;;;;;18.83;9.82;;;;;;;;;;4408682;32;20307;-55
2021/06/04 06:39:26;;;;;;;12.30;7.95;;;;;;;;;;4411783;32;20672;-56
2021/06/04 06:41:52;;;;;;;19.20;9.00;;;;;;;;;;4411363;32;20256;-55
2021/06/04 06:44:18;;;;;;;15.23;8.73;;;;;;;;;;4411997;32;20568;-56
2021/06/04 06:46:46;;;;;;;17.37;7.87;;;;;;;;;;4415511;32;20260;-56
2021/06/04 06:49:12;;;;;;;13.60;8.52;;;;;;;;;;4405629;32;20213;-55
2021/06/04 06:51:38;;;;;;;11.43;7.75;;;;;;;;;;4406230;32;20251;-56
2021/06/04 06:54:14;;;;;;;18.25;9.02;;;;;;;;;;4408705;32;20217;-56
2021/06/04 06:56:40;;;;;;;20.62;8.90;;;;;;;;;;4409236;32;20373;-56
2021/06/04 06:59:06;;;;;;;10.35;7.85;;;;;;;;;;4406408;32;20322;-57
2021/06/04 07:01:31;;;;;;;24.98;8.82;;;;;;;;;;4402102;32;20606;-55
2021/06/04 07:03:57;;;;;;;20.92;8.68;;;;;;;;;;4403982;32;20253;-55
2021/06/04 07:06:28;;;;;;;18.08;8.40;;;;;;;;;;4410092;32;20268;-55
2021/06/04 07:08:55;;;;;;;17.67;8.05;;;;;;;;;;4408857;32;20701;-56
2021/06/04 07:11:23;;;;;;;11.38;8.57;;;;;;;;;;4416727;32;20576;-56
2021/06/04 07:13:50;;;;;;;20.25;7.78;;;;;;;;;;4417378;32;20243;-56
2021/06/04 07:16:16;;;;;;;12.48;7.50;;;;;;;;;;4402817;32;20327;-57
2021/06/04 07:18:42;;;;;;;16.42;8.73;;;;;;;;;;4412433;32;20798;-56
2021/06/04 07:21:11;;;;;;;16.30;7.37;;;;;;;;;;4405968;32;20241;-57
2021/06/04 07:23:37;;;;;;;15.80;8.10;;;;;;;;;;4417614;32;20280;-56
2021/06/04 07:26:04;;;;;;;17.90;7.72;;;;;;;;;;4407142;32;20276;-56
2021/06/04 07:28:32;;;;;;;16.02;7.90;;;;;;;;;;4397356;32;20844;-56
2021/06/04 07:31:01;;;;;;;11.52;7.72;;;;;;;;;;4407843;32;20213;-56
2021/06/04 07:33:33;;;;;;;11.57;7.43;;;;;;;;;;4411951;32;20354;-56
2021/06/04 07:36:01;;;;;;;16.62;7.25;;;;;;;;;;4416502;32;20243;-56
2021/06/04 07:38:27;;;;;;;10.90;7.03;;;;;;;;;;4415460;32;20630;-56
2021/06/04 07:40:53;;;;;;;16.40;7.22;;;;;;;;;;4410130;32;20292;-56
2021/06/04 07:43:23;;;;;;;15.13;7.95;;;;;;;;;;4409765;32;20212;-56
2021/06/04 07:45:50;;;;;;;16.15;6.62;;;;;;;;;;4404241;32;20340;-57
2021/06/04 07:48:19;;;;;;;20.20;7.00;;;;;;;;;;4416045;32;20357;-55
2021/06/04 07:50:46;;;;;;;21.30;7.05;;;;;;;;;;4408311;32;20205;-56
2021/06/04 07:53:16;;;;;;;13.02;6.55;;;;;;;;;;4414008;32;20377;-57
2021/06/04 07:55:42;;;;;;;14.87;6.85;;;;;;;;;;4416909;32;20251;-57
2021/06/04 07:58:08;;;;;;;15.63;6.50;;;;;;;;;;4417316;32;20332;-56
2021/06/04 08:00:35;;;;;;;13.88;6.82;;;;;;;;;;4418125;32;20315;-57
2021/06/04 08:03:04;;;;;;;20.62;8.85;;;;;;;;;;4418055;32;20327;-57
2021/06/04 08:05:31;;;;;;;10.57;7.00;;;;;;;;;;4418644;32;20288;-56
2021/06/04 08:07:56;;;;;;;12.20;6.75;;;;;;;;;;4419133;32;20248;-56
2021/06/04 08:10:23;;;;;;;14.48;6.95;;;;;;;;;;4418753;32;20295;-58
2021/06/04 08:12:49;;;;;;;8.65;6.00;;;;;;;;;;4418805;32;20244;-56
2021/06/04 08:15:37;;;;;;;9.63;6.55;;;;;;;;;;4418603;32;20640;-56
2021/06/04 08:18:04;;;;;;;13.00;7.22;;;;;;;;;;4419234;32;20214;-56
2021/06/04 08:20:33;;;;;;;9.80;6.72;;;;;;;;;;4418977;32;20334;-56
2021/06/04 08:23:02;;;;;;;13.15;7.03;;;;;;;;;;4419290;32;20217;-55
2021/06/04 08:25:31;;;;;;;13.90;6.53;;;;;;;;;;4418835;32;20305;-57
2021/06/04 08:27:57;;;;;;;11.35;6.60;;;;;;;;;;4418919;32;20237;-56
2021/06/04 08:30:23;;;;;;;15.90;7.00;;;;;;;;;;4418505;32;20334;-57
2021/06/04 08:32:49;;;;;;;15.68;6.68;;;;;;;;;;4403603;32;20225;-55
2021/06/04 08:35:15;;;;;;;22.60;7.65;;;;;;;;;;4403942;32;20279;-56
2021/06/04 08:37:42;;;;;;;14.23;5.53;;;;;;;;;;4404224;32;20256;-57
2021/06/04 08:40:22;;;;;;;9.50;5.80;;;;;;;;;;4403658;32;20226;-56
2021/06/04 08:43:08;;;;;;;14.98;8.45;;;;;;;;;;4403658;32;20259;-56
2021/06/04 08:45:47;;;;;;;13.57;6.40;;;;;;;;;;4389776;32;20289;-55
2021/06/04 08:48:32;;;;;;;22.08;6.50;;;;;;;;;;4403713;32;20194;-57
2021/06/04 08:51:32;;;;;;;15.65;6.80;;;;;;;;;;4412450;32;20221;-56
2021/06/04 08:53:58;;;;;;;14.02;6.28;;;;;;;;;;4418994;32;20273;-56
2021/06/04 08:56:35;;;;;;;14.30;5.30;;;;;;;;;;4418551;32;20236;-56
2021/06/04 08:59:03;;;;;;;9.77;5.55;;;;;;;;;;4418704;32;20318;-57
2021/06/04 09:01:32;;;;;;;13.43;4.93;;;;;;;;;;4418637;32;20279;-57
2021/06/04 09:04:00;;;;;;;13.73;4.28;;;;;;;;;;4418787;32;20201;-57
2021/06/04 09:06:35;;;;;;;11.88;5.05;;;;;;;;;;4418604;32;20296;-57
2021/06/04 09:09:26;;;;;;;8.65;3.87;;;;;;;;;;4418154;32;20343;-58
2021/06/04 09:12:03;;;;;;;8.10;4.15;;;;;;;;;;4379829;32;20241;-56
2021/06/04 09:14:29;;;;;;;6.75;4.28;;;;;;;;;;4418313;32;20234;-57
2021/06/04 09:16:57;;;;;;;7.20;4.37;;;;;;;;;;4418345;32;20221;-58
2021/06/04 09:19:32;;;;;;;10.63;4.20;;;;;;;;;;4404551;32;20236;-57
2021/06/04 09:21:58;;;;;;;9.27;3.78;;;;;;;;;;4418384;32;20288;-56
2021/06/04 09:24:35;;;;;;;6.80;4.32;;;;;;;;;;4417301;32;20238;-57
2021/06/04 09:27:00;;;;;;;7.93;3.80;;;;;;;;;;4418069;32;20312;-55
2021/06/04 09:29:29;;;;;;;9.82;4.32;;;;;;;;;;4417869;32;20240;-56
2021/06/04 09:32:15;;;;;;;7.45;3.80;;;;;;;;;;4413266;32;20560;-57
2021/06/04 09:34:41;;;;;;;5.55;3.62;;;;;;;;;;4417492;32;20236;-56
2021/06/04 09:37:26;;;;;;;5.55;3.58;;;;;;;;;;4418145;32;20722;-57
2021/06/04 09:40:05;;;;;;;15.07;3.35;;;;;;;;;;4417594;32;20241;-57
2021/06/04 09:42:33;;;;;;;6.53;3.50;;;;;;;;;;4417383;32;20253;-57
2021/06/04 09:45:11;;;;;;;4.68;3.45;;;;;;;;;;4417306;32;20472;-57
2021/06/04 09:47:44;;;;;;;11.30;3.53;;;;;;;;;;4418015;32;20656;-57
2021/06/04 09:50:21;;;;;;;10.07;3.78;;;;;;;;;;4414133;32;20715;-56
2021/06/04 09:53:19;;;;;;;9.32;3.95;;;;;;;;;;4405034;32;20316;-56
2021/06/04 09:55:48;;;;;;;6.62;3.65;;;;;;;;;;4394868;32;20709;-56
2021/06/04 09:58:13;;;;;;;6.70;4.25;;;;;;;;;;4405005;32;20266;-56
2021/06/04 10:00:39;;;;;;;13.68;5.78;;;;;;;;;;4404865;32;20285;-57
2021/06/04 10:03:15;;;;;;;4.95;3.00;;;;;;;;;;4404612;32;20304;-57
2021/06/04 10:05:42;;;;;;;7.97;4.18;;;;;;;;;;4404365;32;20248;-56
2021/06/04 10:08:29;;;;;;;12.40;3.78;;;;;;;;;;4404708;32;20310;-57
2021/06/04 10:11:13;;;;;;;5.97;3.45;;;;;;;;;;4404338;32;20638;-57
2021/06/04 10:13:42;;;;;;;6.93;3.53;;;;;;;;;;4390446;32;20606;-56
2021/06/04 10:16:39;;;;;;;7.55;3.55;;;;;;;;;;4403937;32;20302;-57
2021/06/04 10:19:16;;;;;;;5.85;3.25;;;;;;;;;;4410710;32;20586;-58
2021/06/04 10:21:42;;;;;;;10.43;3.45;;;;;;;;;;4404650;32;20248;-57
2021/06/04 10:24:26;;;;;;;5.53;3.20;;;;;;;;;;4390412;32;20289;-57
2021/06/04 10:27:00;;;;;;;4.20;2.60;;;;;;;;;;4406084;32;20244;-57
2021/06/04 10:29:27;;;;;;;6.45;3.45;;;;;;;;;;4419625;32;20193;-57
2021/06/04 10:32:04;;;;;;;4.80;3.00;;;;;;;;;;4418855;32;20297;-57
2021/06/04 10:34:41;;;;;;;4.70;2.87;;;;;;;;;;4418951;32;20301;-56
2021/06/04 10:37:19;;;;;;;5.30;2.70;;;;;;;;;;4419650;32;20221;-56
2021/06/04 10:39:54;;;;;;;4.30;2.50;;;;;;;;;;4413756;32;20367;-56
2021/06/04 10:42:41;;;;;;;10.20;2.50;;;;;;;;;;4416708;32;20307;-56
2021/06/04 10:45:23;;;;;;;3.05;2.28;;;;;;;;;;4412833;32;20364;-56
2021/06/04 10:48:07;;;;;;;6.50;3.15;;;;;;;;;;4413929;32;20213;-56
2021/06/04 10:50:40;;;;;;;7.78;2.85;;;;;;;;;;4405592;32;20260;-56
2021/06/04 10:53:21;;;;;;;6.47;2.67;;;;;;;;;;4415097;32;20210;-56
2021/06/04 10:56:10;;;;;;;4.32;2.75;;;;;;;;;;4403842;32;20308;-57
2021/06/04 10:58:47;;;;;;;5.75;2.50;;;;;;;;;;4415582;32;20274;-56
2021/06/04 11:01:16;;;;;;;7.10;2.92;;;;;;;;;;4404968;32;20250;-56
2021/06/04 11:03:51;;;;;;;7.57;2.42;;;;;;;;;;4411047;32;20427;-56
2021/06/04 11:06:27;;;;;;;8.27;2.75;;;;;;;;;;4410562;32;20813;-55
2021/06/04 11:09:20;;;;;;;7.78;3.47;;;;;;;;;;4402947;32;20243;-58
2021/06/04 11:11:46;;;;;;;5.50;3.05;;;;;;;;;;4413447;32;20276;-57
2021/06/04 11:14:33;;;;;;;10.27;3.92;;;;;;;;;;4414740;32;20684;-57
2021/06/04 11:17:04;;;;;;;3.95;2.53;;;;;;;;;;4382197;32;20347;-57
2021/06/04 11:19:44;;;;;;;7.43;2.58;;;;;;;;;;4409918;32;20360;-56
2021/06/04 11:22:17;;;;;;;8.05;2.30;;;;;;;;;;4391824;32;20295;-57
2021/06/04 11:25:16;;;;;;;5.37;2.40;;;;;;;;;;4409413;32;20633;-56
2021/06/04 11:27:45;;;;;;;3.67;2.58;;;;;;;;;;4409557;32;20308;-56
2021/06/04 11:30:15;;;;;;;4.70;2.92;;;;;;;;;;4394332;32;20370;-58
2021/06/04 11:33:04;;;;;;;4.50;2.72;;;;;;;;;;4406734;32;20331;-56
2021/06/04 11:35:34;;;;;;;3.75;2.45;;;;;;;;;;4403796;32;20312;-57
2021/06/04 11:38:15;;;;;;;3.30;2.45;;;;;;;;;;4417233;32;20295;-57
2021/06/04 11:40:52;;;;;;;3.33;2.17;;;;;;;;;;4402362;32;20279;-57
2021/06/04 11:43:34;;;;;;;4.20;2.58;;;;;;;;;;4404569;32;20307;-57
2021/06/04 11:46:21;;;;;;;3.53;2.55;;;;;;;;;;4382898;32;20720;-57
2021/06/04 11:49:06;;;;;;;4.35;3.50;;;;;;;;;;4402263;32;20255;-56
2021/06/04 11:51:36;;;;;;;3.47;2.62;;;;;;;;;;4413165;32;20304;-57
2021/06/04 11:54:32;;;;;;;5.12;2.58;;;;;;;;;;4407254;32;20300;-56
2021/06/04 11:57:05;;;;;;;6.12;2.78;;;;;;;;;;4408571;32;20233;-57
2021/06/04 11:59:54;;;;;;;4.78;2.65;;;;;;;;;;4412714;32;20292;-56
2021/06/04 12:02:42;;;;;;;4.20;2.55;;;;;;;;;;4416842;32;20643;-58
2021/06/04 12:05:11;;;;;;;2.92;2.28;;;;;;;;;;4403344;32;20205;-56
2021/06/04 12:07:43;;;;;;;3.33;2.35;;;;;;;;;;4390249;32;20363;-57
2021/06/04 12:10:13;;;;;;;3.55;2.50;;;;;;;;;;4413870;32;20542;-57
2021/06/04 12:12:58;;;;;;;23.52;3.50;;;;;;;;;;4411834;32;20225;-56
2021/06/04 12:15:39;;;;;;;3.60;2.50;;;;;;;;;;4400478;32;20668;-58
2021/06/04 12:18:32;;;;;;;8.55;2.55;;;;;;;;;;4411669;32;20287;-58
2021/06/04 12:20:58;;;;;;;3.42;2.15;;;;;;;;;;4415273;32;20217;-57
2021/06/04 12:23:51;;;;;;;7.50;3.37;;;;;;;;;;4400822;32;20220;-56
2021/06/04 12:26:39;;;;;;;6.55;2.03;;;;;;;;;;4409667;32;20534;-56
2021/06/04 12:29:26;;;;;;;4.78;2.40;;;;;;;;;;4405965;32;20213;-56
2021/06/04 12:32:03;;;;;;;6.97;2.53;;;;;;;;;;4405184;32;20296;-57
2021/06/04 12:34:31;;;;;;;3.70;2.15;;;;;;;;;;4405217;32;20309;-57
2021/06/04 12:37:18;;;;;;;4.75;2.10;;;;;;;;;;4405275;32;20359;-57
2021/06/04 12:39:50;;;;;;;4.93;2.12;;;;;;;;;;4415812;32;20236;-58
2021/06/04 12:42:15;;;;;;;7.32;2.70;;;;;;;;;;4415208;32;20731;-57
2021/06/04 12:45:00;;;;;;;3.85;2.10;;;;;;;;;;4414229;32;20242;-58
2021/06/04 12:47:36;;;;;;;4.68;2.95;;;;;;;;;;4416130;32;20350;-57
2021/06/04 12:50:06;;;;;;;6.55;2.25;;;;;;;;;;4408698;32;20193;-58
2021/06/04 12:52:32;;;;;;;21.00;3.33;;;;;;;;;;4397865;32;20264;-57
2021/06/04 12:55:32;;;;;;;2.92;1.90;;;;;;;;;;4412247;32;20235;-57
2021/06/04 12:58:18;;;;;;;3.40;1.83;;;;;;;;;;4369480;32;20282;-57
2021/06/04 13:00:45;;;;;;;5.43;2.08;;;;;;;;;;4405867;32;20217;-58
2021/06/04 13:03:20;;;;;;;5.05;2.10;;;;;;;;;;4411559;32;20656;-59
2021/06/04 13:05:49;;;;;;;2.45;1.80;;;;;;;;;;4409765;32;20335;-58
2021/06/04 13:08:16;;;;;;;3.12;2.05;;;;;;;;;;4415051;32;20303;-58
2021/06/04 13:10:53;;;;;;;5.37;2.25;;;;;;;;;;4413071;32;20264;-57
2021/06/04 13:13:26;;;;;;;7.15;2.75;;;;;;;;;;4402842;32;20205;-58
2021/06/04 13:15:53;;;;;;;5.45;2.47;;;;;;;;;;4408262;32;20221;-57
2021/06/04 13:18:21;;;;;;;3.45;2.50;;;;;;;;;;4406880;32;20189;-57
2021/06/04 13:20:50;;;;;;;4.20;1.92;;;;;;;;;;4404253;32;20257;-58
2021/06/04 13:23:28;;;;;;;4.18;2.08;;;;;;;;;;4412218;32;20234;-56
2021/06/04 13:26:24;;;;;;;6.03;3.22;;;;;;;;;;4407355;32;20243;-56
2021/06/04 13:28:56;;;;;;;3.97;1.65;;;;;;;;;;4405884;32;20751;-58
2021/06/04 13:31:31;;;;;;;4.20;2.15;;;;;;;;;;4411629;32;20225;-58
2021/06/04 13:34:00;;;;;;;3.62;1.87;;;;;;;;;;4408884;32;20234;-56
2021/06/04 13:36:27;;;;;;;4.30;2.10;;;;;;;;;;4418800;32;20334;-59
2021/06/04 13:39:08;;;;;;;7.65;1.85;;;;;;;;;;4410733;32;20209;-57
2021/06/04 13:41:57;;;;;;;2.00;1.62;;;;;;;;;;4412416;32;20271;-57
2021/06/04 13:44:25;;;;;;;7.72;1.92;;;;;;;;;;4408862;32;20205;-57
2021/06/04 13:46:54;;;;;;;7.28;2.70;;;;;;;;;;4408125;32;20241;-57
2021/06/04 13:49:19;;;;;;;2.92;1.58;;;;;;;;;;4403424;32;20737;-57
2021/06/04 13:52:08;;;;;;;1.75;1.10;;;;;;;;;;4392894;32;20319;-57
2021/06/04 13:54:35;;;;;;;2.00;1.40;;;;;;;;;;4418381;32;20595;-57
2021/06/04 13:57:30;;;;;;;8.68;1.95;;;;;;;;;;4418375;32;20314;-58
2021/06/04 14:00:17;;;;;;;1.98;1.45;;;;;;;;;;4347952;32;20230;-57
2021/06/04 14:02:48;;;;;;;3.20;1.35;;;;;;;;;;4414074;32;20217;-57
2021/06/04 14:05:22;;;;;;;6.57;1.80;;;;;;;;;;4417430;32;20783;-57
2021/06/04 14:07:48;;;;;;;6.60;2.33;;;;;;;;;;4407664;32;20232;-57
2021/06/04 14:10:32;;;;;;;2.28;1.48;;;;;;;;;;4401746;32;20308;-58
2021/06/04 14:13:06;;;;;;;8.35;1.40;;;;;;;;;;4410772;32;20617;-58
2021/06/04 14:15:54;;;;;;;4.65;1.62;;;;;;;;;;4404353;32;20272;-58
2021/06/04 14:18:35;;;;;;;2.53;1.50;;;;;;;;;;4416929;32;20520;-57
2021/06/04 14:21:35;;;;;;;6.95;1.87;;;;;;;;;;4393323;32;20345;-58
2021/06/04 14:24:09;;;;;;;5.75;2.37;;;;;;;;;;4406059;32;20320;-58
2021/06/04 14:26:55;;;;;;;2.42;1.85;;;;;;;;;;4412484;32;20285;-58
2021/06/04 14:29:21;;;;;;;3.72;1.75;;;;;;;;;;4410941;32;20279;-57
2021/06/04 14:31:49;;;;;;;3.65;1.40;;;;;;;;;;4407962;32;20726;-57
2021/06/04 14:34:16;;;;;;;6.40;1.73;;;;;;;;;;4410783;32;20289;-57
2021/06/04 14:36:42;;;;;;;3.65;1.42;;;;;;;;;;4410294;32;20307;-57
2021/06/04 14:39:23;;;;;;;3.53;1.48;;;;;;;;;;4392620;32;20236;-56
2021/06/04 14:41:48;;;;;;;7.32;1.95;;;;;;;;;;4407682;32;20300;-56
2021/06/04 14:44:14;;;;;;;5.18;1.83;;;;;;;;;;4411828;32;20790;-57
2021/06/04 14:46:39;;;;;;;6.30;2.00;;;;;;;;;;4412360;32;20326;-56
2021/06/04 14:49:11;;;;;;;1.90;1.40;;;;;;;;;;4415920;32;20217;-56
2021/06/04 14:51:38;;;;;;;2.22;1.27;;;;;;;;;;4392669;32;20572;-57
2021/06/04 14:54:04;;;;;;;6.80;1.77;;;;;;;;;;4404768;32;20226;-57
2021/06/04 14:56:30;;;;;;;1.98;1.42;;;;;;;;;;4404768;32;20225;-57
2021/06/04 14:58:55;;;;;;;3.85;1.60;;;;;;;;;;4404646;32;20287;-57
2021/06/04 15:01:21;;;;;;;4.20;2.00;;;;;;;;;;4404635;32;20304;-56
2021/06/04 15:03:49;;;;;;;5.05;1.62;;;;;;;;;;4404920;32;20198;-58
2021/06/04 15:06:15;;;;;;;5.50;2.25;;;;;;;;;;4404215;32;20225;-57